sensor_id;sensor_type;location;lat;lon;timestamp;P1;durP1;ratioP1;P2;durP2;ratioP2
8574;SDS011;4325;42.520;27.448;2023-04-28T00:00:06;4.67;;;3.57;;
8574;SDS011;4325;42.520;27.448;2023-04-28T00:02:34;4.70;;;3.17;;
8574;SDS011;4325;42.520;27.448;2023-04-28T00:05:01;7.93;;;3.30;;
8574;SDS011;4325;42.520;27.448;2023-04-28T00:07:29;5.93;;;3.30;;
8574;SDS011;4325;42.520;27.448;2023-04-28T00:09:56;7.13;;;4.33;;
8574;SDS011;4325;42.520;27.448;2023-04-28T00:12:23;6.23;;;3.87;;
8574;SDS011;4325;42.520;27.448;2023-04-28T00:14:50;5.07;;;3.13;;
8574;SDS011;4325;42.520;27.448;2023-04-28T00:17:17;6.70;;;3.13;;
8574;SDS011;4325;42.520;27.448;2023-04-28T00:19:44;6.23;;;3.00;;
8574;SDS011;4325;42.520;27.448;2023-04-28T00:22:11;6.03;;;3.33;;
8574;SDS011;4325;42.520;27.448;2023-04-28T00:24:39;4.63;;;3.03;;
8574;SDS011;4325;42.520;27.448;2023-04-28T00:27:06;7.87;;;3.47;;
8574;SDS011;4325;42.520;27.448;2023-04-28T00:29:33;10.03;;;3.47;;
8574;SDS011;4325;42.520;27.448;2023-04-28T00:32:00;8.33;;;4.17;;
8574;SDS011;4325;42.520;27.448;2023-04-28T00:34:28;9.63;;;3.33;;
8574;SDS011;4325;42.520;27.448;2023-04-28T00:36:58;8.17;;;3.87;;
8574;SDS011;4325;42.520;27.448;2023-04-28T00:39:25;9.03;;;3.47;;
8574;SDS011;4325;42.520;27.448;2023-04-28T00:41:53;6.57;;;3.00;;
8574;SDS011;4325;42.520;27.448;2023-04-28T00:44:20;13.67;;;3.40;;
8574;SDS011;4325;42.520;27.448;2023-04-28T00:46:47;7.43;;;3.83;;
8574;SDS011;4325;42.520;27.448;2023-04-28T00:49:14;7.07;;;3.33;;
8574;SDS011;4325;42.520;27.448;2023-04-28T00:51:42;6.40;;;3.17;;
8574;SDS011;4325;42.520;27.448;2023-04-28T00:54:09;5.87;;;3.37;;
8574;SDS011;4325;42.520;27.448;2023-04-28T00:56:39;4.83;;;2.67;;
8574;SDS011;4325;42.520;27.448;2023-04-28T00:59:07;5.43;;;3.00;;
8574;SDS011;4325;42.520;27.448;2023-04-28T01:01:34;9.30;;;3.30;;
8574;SDS011;4325;42.520;27.448;2023-04-28T01:04:01;9.30;;;2.80;;
8574;SDS011;4325;42.520;27.448;2023-04-28T01:06:28;5.00;;;2.43;;
8574;SDS011;4325;42.520;27.448;2023-04-28T01:08:57;6.23;;;2.40;;
8574;SDS011;4325;42.520;27.448;2023-04-28T01:11:24;5.27;;;2.63;;
8574;SDS011;4325;42.520;27.448;2023-04-28T01:13:50;6.10;;;2.43;;
8574;SDS011;4325;42.520;27.448;2023-04-28T01:16:19;6.70;;;2.70;;
8574;SDS011;4325;42.520;27.448;2023-04-28T01:18:46;5.80;;;2.67;;
8574;SDS011;4325;42.520;27.448;2023-04-28T01:21:13;6.83;;;2.80;;
8574;SDS011;4325;42.520;27.448;2023-04-28T01:23:40;4.17;;;2.43;;
8574;SDS011;4325;42.520;27.448;2023-04-28T01:26:12;3.90;;;2.37;;
8574;SDS011;4325;42.520;27.448;2023-04-28T01:28:39;7.03;;;2.67;;
8574;SDS011;4325;42.520;27.448;2023-04-28T01:31:05;6.17;;;2.70;;
8574;SDS011;4325;42.520;27.448;2023-04-28T01:33:32;7.00;;;2.80;;
8574;SDS011;4325;42.520;27.448;2023-04-28T01:36:01;5.07;;;2.70;;
8574;SDS011;4325;42.520;27.448;2023-04-28T01:38:27;6.83;;;2.67;;
8574;SDS011;4325;42.520;27.448;2023-04-28T01:40:56;7.63;;;2.70;;
8574;SDS011;4325;42.520;27.448;2023-04-28T01:43:23;3.03;;;2.47;;
8574;SDS011;4325;42.520;27.448;2023-04-28T01:45:50;5.80;;;2.37;;
8574;SDS011;4325;42.520;27.448;2023-04-28T01:48:34;4.67;;;2.40;;
8574;SDS011;4325;42.520;27.448;2023-04-28T01:51:01;4.17;;;2.77;;
8574;SDS011;4325;42.520;27.448;2023-04-28T01:53:28;7.13;;;2.43;;
8574;SDS011;4325;42.520;27.448;2023-04-28T01:55:56;5.77;;;2.70;;
8574;SDS011;4325;42.520;27.448;2023-04-28T01:58:23;8.20;;;2.40;;
8574;SDS011;4325;42.520;27.448;2023-04-28T02:00:50;5.27;;;2.40;;
8574;SDS011;4325;42.520;27.448;2023-04-28T02:03:17;5.20;;;2.60;;
8574;SDS011;4325;42.520;27.448;2023-04-28T02:05:44;3.17;;;2.20;;
8574;SDS011;4325;42.520;27.448;2023-04-28T02:08:11;8.43;;;2.77;;
8574;SDS011;4325;42.520;27.448;2023-04-28T02:10:38;9.70;;;2.53;;
8574;SDS011;4325;42.520;27.448;2023-04-28T02:13:07;9.53;;;2.87;;
8574;SDS011;4325;42.520;27.448;2023-04-28T02:15:33;6.37;;;2.87;;
8574;SDS011;4325;42.520;27.448;2023-04-28T02:18:05;4.07;;;2.63;;
8574;SDS011;4325;42.520;27.448;2023-04-28T02:20:32;4.03;;;2.43;;
8574;SDS011;4325;42.520;27.448;2023-04-28T02:22:59;8.07;;;2.70;;
8574;SDS011;4325;42.520;27.448;2023-04-28T02:25:25;4.67;;;2.67;;
8574;SDS011;4325;42.520;27.448;2023-04-28T02:27:52;5.57;;;2.97;;
8574;SDS011;4325;42.520;27.448;2023-04-28T02:30:21;4.53;;;2.57;;
8574;SDS011;4325;42.520;27.448;2023-04-28T02:32:48;14.57;;;2.63;;
8574;SDS011;4325;42.520;27.448;2023-04-28T02:35:15;9.97;;;2.90;;
8574;SDS011;4325;42.520;27.448;2023-04-28T02:37:42;8.40;;;2.60;;
8574;SDS011;4325;42.520;27.448;2023-04-28T02:40:09;12.30;;;2.73;;
8574;SDS011;4325;42.520;27.448;2023-04-28T02:42:36;6.43;;;3.33;;
8574;SDS011;4325;42.520;27.448;2023-04-28T02:45:04;5.60;;;3.17;;
8574;SDS011;4325;42.520;27.448;2023-04-28T02:47:33;5.87;;;2.73;;
8574;SDS011;4325;42.520;27.448;2023-04-28T02:49:59;3.90;;;2.60;;
8574;SDS011;4325;42.520;27.448;2023-04-28T02:52:26;8.67;;;3.00;;
8574;SDS011;4325;42.520;27.448;2023-04-28T02:54:53;5.63;;;2.80;;
8574;SDS011;4325;42.520;27.448;2023-04-28T02:57:21;3.70;;;2.70;;
8574;SDS011;4325;42.520;27.448;2023-04-28T02:59:49;6.80;;;2.53;;
8574;SDS011;4325;42.520;27.448;2023-04-28T03:02:15;7.33;;;2.97;;
8574;SDS011;4325;42.520;27.448;2023-04-28T03:04:46;10.37;;;2.77;;
8574;SDS011;4325;42.520;27.448;2023-04-28T03:07:12;6.63;;;2.90;;
8574;SDS011;4325;42.520;27.448;2023-04-28T03:09:40;5.30;;;2.33;;
8574;SDS011;4325;42.520;27.448;2023-04-28T03:12:07;5.63;;;2.97;;
8574;SDS011;4325;42.520;27.448;2023-04-28T03:14:33;6.10;;;2.90;;
8574;SDS011;4325;42.520;27.448;2023-04-28T03:17:00;7.13;;;3.17;;
8574;SDS011;4325;42.520;27.448;2023-04-28T03:19:27;4.23;;;3.43;;
8574;SDS011;4325;42.520;27.448;2023-04-28T03:21:55;8.53;;;5.03;;
8574;SDS011;4325;42.520;27.448;2023-04-28T03:24:22;4.53;;;3.07;;
8574;SDS011;4325;42.520;27.448;2023-04-28T03:26:49;7.47;;;3.27;;
8574;SDS011;4325;42.520;27.448;2023-04-28T03:29:16;13.07;;;4.03;;
8574;SDS011;4325;42.520;27.448;2023-04-28T03:31:43;8.73;;;3.67;;
8574;SDS011;4325;42.520;27.448;2023-04-28T03:34:10;8.70;;;4.67;;
8574;SDS011;4325;42.520;27.448;2023-04-28T03:36:36;7.43;;;3.77;;
8574;SDS011;4325;42.520;27.448;2023-04-28T03:39:05;9.07;;;3.37;;
8574;SDS011;4325;42.520;27.448;2023-04-28T03:41:32;10.10;;;3.50;;
8574;SDS011;4325;42.520;27.448;2023-04-28T03:43:58;7.37;;;3.53;;
8574;SDS011;4325;42.520;27.448;2023-04-28T03:46:25;18.63;;;6.57;;
8574;SDS011;4325;42.520;27.448;2023-04-28T03:48:53;9.63;;;5.50;;
8574;SDS011;4325;42.520;27.448;2023-04-28T03:51:20;15.03;;;6.47;;
8574;SDS011;4325;42.520;27.448;2023-04-28T03:53:47;8.53;;;5.40;;
8574;SDS011;4325;42.520;27.448;2023-04-28T03:56:15;7.57;;;4.00;;
8574;SDS011;4325;42.520;27.448;2023-04-28T03:58:42;8.80;;;6.70;;
8574;SDS011;4325;42.520;27.448;2023-04-28T04:01:09;11.47;;;4.87;;
8574;SDS011;4325;42.520;27.448;2023-04-28T04:03:36;5.63;;;4.10;;
8574;SDS011;4325;42.520;27.448;2023-04-28T04:06:03;5.73;;;3.53;;
8574;SDS011;4325;42.520;27.448;2023-04-28T04:08:31;6.47;;;2.80;;
8574;SDS011;4325;42.520;27.448;2023-04-28T04:10:58;12.50;;;4.37;;
8574;SDS011;4325;42.520;27.448;2023-04-28T04:13:26;10.57;;;3.90;;
8574;SDS011;4325;42.520;27.448;2023-04-28T04:15:53;8.97;;;5.13;;
8574;SDS011;4325;42.520;27.448;2023-04-28T04:18:20;11.23;;;3.73;;
8574;SDS011;4325;42.520;27.448;2023-04-28T04:20:47;12.70;;;4.40;;
8574;SDS011;4325;42.520;27.448;2023-04-28T04:23:14;5.00;;;3.30;;
8574;SDS011;4325;42.520;27.448;2023-04-28T04:25:41;6.20;;;3.33;;
8574;SDS011;4325;42.520;27.448;2023-04-28T04:28:08;7.33;;;3.83;;
8574;SDS011;4325;42.520;27.448;2023-04-28T04:30:36;8.13;;;3.50;;
8574;SDS011;4325;42.520;27.448;2023-04-28T04:33:03;5.13;;;3.17;;
8574;SDS011;4325;42.520;27.448;2023-04-28T04:35:31;7.13;;;3.10;;
8574;SDS011;4325;42.520;27.448;2023-04-28T04:37:58;17.53;;;3.90;;
8574;SDS011;4325;42.520;27.448;2023-04-28T04:40:25;5.67;;;3.07;;
8574;SDS011;4325;42.520;27.448;2023-04-28T04:42:52;7.40;;;3.50;;
8574;SDS011;4325;42.520;27.448;2023-04-28T04:45:19;9.77;;;3.83;;
8574;SDS011;4325;42.520;27.448;2023-04-28T04:47:48;7.10;;;3.37;;
8574;SDS011;4325;42.520;27.448;2023-04-28T04:50:15;6.97;;;4.03;;
8574;SDS011;4325;42.520;27.448;2023-04-28T04:52:42;16.17;;;3.63;;
8574;SDS011;4325;42.520;27.448;2023-04-28T04:55:09;4.90;;;3.13;;
8574;SDS011;4325;42.520;27.448;2023-04-28T04:57:36;8.73;;;3.30;;
8574;SDS011;4325;42.520;27.448;2023-04-28T05:00:03;7.70;;;3.57;;
8574;SDS011;4325;42.520;27.448;2023-04-28T05:02:31;5.27;;;2.83;;
8574;SDS011;4325;42.520;27.448;2023-04-28T05:04:59;10.83;;;3.20;;
8574;SDS011;4325;42.520;27.448;2023-04-28T05:07:26;10.57;;;3.27;;
8574;SDS011;4325;42.520;27.448;2023-04-28T05:09:53;4.60;;;2.87;;
8574;SDS011;4325;42.520;27.448;2023-04-28T05:12:20;4.00;;;2.80;;
8574;SDS011;4325;42.520;27.448;2023-04-28T05:14:46;8.63;;;3.50;;
8574;SDS011;4325;42.520;27.448;2023-04-28T05:17:13;11.07;;;3.43;;
8574;SDS011;4325;42.520;27.448;2023-04-28T05:19:40;8.60;;;3.80;;
8574;SDS011;4325;42.520;27.448;2023-04-28T05:22:08;4.00;;;2.60;;
8574;SDS011;4325;42.520;27.448;2023-04-28T05:24:36;9.77;;;3.07;;
8574;SDS011;4325;42.520;27.448;2023-04-28T05:27:03;7.57;;;2.97;;
8574;SDS011;4325;42.520;27.448;2023-04-28T05:29:30;6.80;;;4.57;;
8574;SDS011;4325;42.520;27.448;2023-04-28T05:31:57;4.90;;;3.30;;
8574;SDS011;4325;42.520;27.448;2023-04-28T05:34:24;8.87;;;3.27;;
8574;SDS011;4325;42.520;27.448;2023-04-28T05:36:51;9.13;;;3.57;;
8574;SDS011;4325;42.520;27.448;2023-04-28T05:39:19;5.77;;;3.20;;
8574;SDS011;4325;42.520;27.448;2023-04-28T05:41:46;6.87;;;2.90;;
8574;SDS011;4325;42.520;27.448;2023-04-28T05:44:13;7.13;;;3.43;;
8574;SDS011;4325;42.520;27.448;2023-04-28T05:46:40;5.10;;;2.90;;
8574;SDS011;4325;42.520;27.448;2023-04-28T05:49:09;4.37;;;2.60;;
8574;SDS011;4325;42.520;27.448;2023-04-28T05:51:36;6.90;;;3.20;;
8574;SDS011;4325;42.520;27.448;2023-04-28T05:54:03;7.53;;;3.87;;
8574;SDS011;4325;42.520;27.448;2023-04-28T05:56:32;10.83;;;2.90;;
8574;SDS011;4325;42.520;27.448;2023-04-28T05:58:59;4.60;;;2.90;;
8574;SDS011;4325;42.520;27.448;2023-04-28T06:01:28;5.47;;;3.07;;
8574;SDS011;4325;42.520;27.448;2023-04-28T06:03:55;9.13;;;3.20;;
8574;SDS011;4325;42.520;27.448;2023-04-28T06:06:22;8.10;;;3.07;;
8574;SDS011;4325;42.520;27.448;2023-04-28T06:08:50;4.70;;;2.80;;
8574;SDS011;4325;42.520;27.448;2023-04-28T06:11:17;7.70;;;2.50;;
8574;SDS011;4325;42.520;27.448;2023-04-28T06:13:47;7.33;;;2.90;;
8574;SDS011;4325;42.520;27.448;2023-04-28T06:16:15;10.83;;;2.73;;
8574;SDS011;4325;42.520;27.448;2023-04-28T06:18:42;7.33;;;2.40;;
8574;SDS011;4325;42.520;27.448;2023-04-28T06:21:09;7.00;;;2.90;;
8574;SDS011;4325;42.520;27.448;2023-04-28T06:23:36;7.50;;;2.37;;
8574;SDS011;4325;42.520;27.448;2023-04-28T06:26:04;4.20;;;2.50;;
8574;SDS011;4325;42.520;27.448;2023-04-28T06:28:31;11.57;;;2.90;;
8574;SDS011;4325;42.520;27.448;2023-04-28T06:31:00;6.13;;;3.30;;
8574;SDS011;4325;42.520;27.448;2023-04-28T06:33:26;5.17;;;3.43;;
8574;SDS011;4325;42.520;27.448;2023-04-28T06:35:53;7.50;;;2.83;;
8574;SDS011;4325;42.520;27.448;2023-04-28T06:38:20;6.90;;;2.10;;
8574;SDS011;4325;42.520;27.448;2023-04-28T06:40:47;5.33;;;2.30;;
8574;SDS011;4325;42.520;27.448;2023-04-28T06:43:14;3.60;;;2.40;;
8574;SDS011;4325;42.520;27.448;2023-04-28T06:45:41;6.80;;;2.40;;
8574;SDS011;4325;42.520;27.448;2023-04-28T06:48:09;2.97;;;1.80;;
8574;SDS011;4325;42.520;27.448;2023-04-28T06:50:36;5.70;;;2.37;;
8574;SDS011;4325;42.520;27.448;2023-04-28T06:53:03;8.83;;;3.10;;
8574;SDS011;4325;42.520;27.448;2023-04-28T06:55:30;4.67;;;2.50;;
8574;SDS011;4325;42.520;27.448;2023-04-28T06:57:58;3.47;;;2.37;;
8574;SDS011;4325;42.520;27.448;2023-04-28T07:00:25;7.10;;;2.40;;
8574;SDS011;4325;42.520;27.448;2023-04-28T07:02:51;6.27;;;2.60;;
8574;SDS011;4325;42.520;27.448;2023-04-28T07:05:20;8.90;;;2.30;;
8574;SDS011;4325;42.520;27.448;2023-04-28T07:07:47;5.07;;;2.50;;
8574;SDS011;4325;42.520;27.448;2023-04-28T07:10:13;7.63;;;2.27;;
8574;SDS011;4325;42.520;27.448;2023-04-28T07:12:40;6.97;;;2.30;;
8574;SDS011;4325;42.520;27.448;2023-04-28T07:15:07;6.03;;;2.67;;
8574;SDS011;4325;42.520;27.448;2023-04-28T07:17:35;9.50;;;2.70;;
8574;SDS011;4325;42.520;27.448;2023-04-28T07:20:02;4.83;;;2.40;;
8574;SDS011;4325;42.520;27.448;2023-04-28T07:22:30;9.40;;;2.73;;
8574;SDS011;4325;42.520;27.448;2023-04-28T07:24:57;5.00;;;2.50;;
8574;SDS011;4325;42.520;27.448;2023-04-28T07:27:24;4.73;;;2.37;;
8574;SDS011;4325;42.520;27.448;2023-04-28T07:29:51;8.17;;;2.63;;
8574;SDS011;4325;42.520;27.448;2023-04-28T07:32:18;4.87;;;2.33;;
8574;SDS011;4325;42.520;27.448;2023-04-28T07:34:45;5.67;;;2.53;;
8574;SDS011;4325;42.520;27.448;2023-04-28T07:37:12;3.60;;;2.40;;
8574;SDS011;4325;42.520;27.448;2023-04-28T07:39:40;3.90;;;2.27;;
8574;SDS011;4325;42.520;27.448;2023-04-28T07:42:07;5.50;;;2.20;;
8574;SDS011;4325;42.520;27.448;2023-04-28T07:44:35;5.97;;;2.37;;
8574;SDS011;4325;42.520;27.448;2023-04-28T07:47:02;6.70;;;2.67;;
8574;SDS011;4325;42.520;27.448;2023-04-28T07:49:29;4.03;;;2.07;;
8574;SDS011;4325;42.520;27.448;2023-04-28T07:51:56;4.07;;;2.70;;
8574;SDS011;4325;42.520;27.448;2023-04-28T07:54:23;3.93;;;2.23;;
8574;SDS011;4325;42.520;27.448;2023-04-28T07:56:51;3.23;;;2.37;;
8574;SDS011;4325;42.520;27.448;2023-04-28T07:59:18;11.87;;;2.60;;
8574;SDS011;4325;42.520;27.448;2023-04-28T08:01:45;4.83;;;2.40;;
8574;SDS011;4325;42.520;27.448;2023-04-28T08:04:12;6.37;;;2.50;;
8574;SDS011;4325;42.520;27.448;2023-04-28T08:06:39;7.47;;;2.30;;
8574;SDS011;4325;42.520;27.448;2023-04-28T08:09:05;6.17;;;2.67;;
8574;SDS011;4325;42.520;27.448;2023-04-28T08:11:32;4.13;;;2.70;;
8574;SDS011;4325;42.520;27.448;2023-04-28T08:14:01;4.20;;;2.40;;
8574;SDS011;4325;42.520;27.448;2023-04-28T08:16:28;3.10;;;2.30;;
8574;SDS011;4325;42.520;27.448;2023-04-28T08:18:55;6.60;;;2.50;;
8574;SDS011;4325;42.520;27.448;2023-04-28T08:21:23;6.57;;;2.33;;
8574;SDS011;4325;42.520;27.448;2023-04-28T08:23:51;4.17;;;2.20;;
8574;SDS011;4325;42.520;27.448;2023-04-28T08:26:17;6.27;;;3.17;;
8574;SDS011;4325;42.520;27.448;2023-04-28T08:28:44;4.47;;;2.30;;
8574;SDS011;4325;42.520;27.448;2023-04-28T08:31:13;4.50;;;2.33;;
8574;SDS011;4325;42.520;27.448;2023-04-28T08:33:39;6.43;;;1.97;;
8574;SDS011;4325;42.520;27.448;2023-04-28T08:36:08;3.53;;;2.27;;
8574;SDS011;4325;42.520;27.448;2023-04-28T08:38:38;4.80;;;2.80;;
8574;SDS011;4325;42.520;27.448;2023-04-28T08:41:05;5.23;;;2.53;;
8574;SDS011;4325;42.520;27.448;2023-04-28T08:43:33;5.90;;;2.20;;
8574;SDS011;4325;42.520;27.448;2023-04-28T08:46:02;7.13;;;2.77;;
8574;SDS011;4325;42.520;27.448;2023-04-28T08:48:35;4.00;;;2.30;;
8574;SDS011;4325;42.520;27.448;2023-04-28T08:51:06;10.50;;;3.17;;
8574;SDS011;4325;42.520;27.448;2023-04-28T08:53:35;3.70;;;2.30;;
8574;SDS011;4325;42.520;27.448;2023-04-28T08:56:04;8.73;;;2.30;;
8574;SDS011;4325;42.520;27.448;2023-04-28T08:58:34;4.07;;;2.30;;
8574;SDS011;4325;42.520;27.448;2023-04-28T09:01:02;5.47;;;2.20;;
8574;SDS011;4325;42.520;27.448;2023-04-28T09:03:29;6.60;;;2.37;;
8574;SDS011;4325;42.520;27.448;2023-04-28T09:06:00;6.00;;;2.33;;
8574;SDS011;4325;42.520;27.448;2023-04-28T09:08:27;4.27;;;2.27;;
8574;SDS011;4325;42.520;27.448;2023-04-28T09:11:06;10.77;;;2.33;;
8574;SDS011;4325;42.520;27.448;2023-04-28T09:13:34;3.67;;;2.60;;
8574;SDS011;4325;42.520;27.448;2023-04-28T09:16:02;8.77;;;2.83;;
8574;SDS011;4325;42.520;27.448;2023-04-28T09:18:29;3.23;;;2.50;;
8574;SDS011;4325;42.520;27.448;2023-04-28T09:21:07;4.50;;;2.40;;
8574;SDS011;4325;42.520;27.448;2023-04-28T09:23:45;7.57;;;2.80;;
8574;SDS011;4325;42.520;27.448;2023-04-28T09:26:13;4.23;;;2.27;;
8574;SDS011;4325;42.520;27.448;2023-04-28T09:28:40;7.33;;;2.30;;
8574;SDS011;4325;42.520;27.448;2023-04-28T09:31:17;5.23;;;2.33;;
8574;SDS011;4325;42.520;27.448;2023-04-28T09:33:55;6.00;;;2.50;;
8574;SDS011;4325;42.520;27.448;2023-04-28T09:36:26;4.87;;;2.37;;
8574;SDS011;4325;42.520;27.448;2023-04-28T09:38:56;6.83;;;2.40;;
8574;SDS011;4325;42.520;27.448;2023-04-28T09:41:33;5.13;;;2.70;;
8574;SDS011;4325;42.520;27.448;2023-04-28T09:44:11;3.60;;;2.47;;
8574;SDS011;4325;42.520;27.448;2023-04-28T09:46:39;7.83;;;2.50;;
8574;SDS011;4325;42.520;27.448;2023-04-28T09:49:07;3.30;;;2.40;;
8574;SDS011;4325;42.520;27.448;2023-04-28T09:51:35;8.33;;;2.90;;
8574;SDS011;4325;42.520;27.448;2023-04-28T09:54:02;5.00;;;2.60;;
8574;SDS011;4325;42.520;27.448;2023-04-28T09:56:30;6.73;;;2.30;;
8574;SDS011;4325;42.520;27.448;2023-04-28T09:58:58;7.57;;;2.73;;
8574;SDS011;4325;42.520;27.448;2023-04-28T10:01:26;4.73;;;2.20;;
8574;SDS011;4325;42.520;27.448;2023-04-28T10:03:57;10.10;;;2.70;;
8574;SDS011;4325;42.520;27.448;2023-04-28T10:06:26;6.67;;;2.50;;
8574;SDS011;4325;42.520;27.448;2023-04-28T10:08:55;4.57;;;2.70;;
8574;SDS011;4325;42.520;27.448;2023-04-28T10:11:24;8.23;;;2.40;;
8574;SDS011;4325;42.520;27.448;2023-04-28T10:13:52;3.03;;;2.20;;
8574;SDS011;4325;42.520;27.448;2023-04-28T10:16:19;6.50;;;2.63;;
8574;SDS011;4325;42.520;27.448;2023-04-28T10:18:47;7.67;;;2.17;;
8574;SDS011;4325;42.520;27.448;2023-04-28T10:21:16;6.90;;;2.97;;
8574;SDS011;4325;42.520;27.448;2023-04-28T10:26:57;4.43;;;2.07;;
8574;SDS011;4325;42.520;27.448;2023-04-28T10:29:29;8.90;;;2.57;;
8574;SDS011;4325;42.520;27.448;2023-04-28T10:34:43;5.53;;;2.10;;
8574;SDS011;4325;42.520;27.448;2023-04-28T10:37:11;6.27;;;2.37;;
8574;SDS011;4325;42.520;27.448;2023-04-28T10:39:41;3.87;;;2.10;;
8574;SDS011;4325;42.520;27.448;2023-04-28T10:42:50;5.90;;;2.50;;
8574;SDS011;4325;42.520;27.448;2023-04-28T10:51:23;4.30;;;2.50;;
8574;SDS011;4325;42.520;27.448;2023-04-28T10:54:09;6.37;;;2.33;;
8574;SDS011;4325;42.520;27.448;2023-04-28T10:59:48;5.03;;;2.40;;
8574;SDS011;4325;42.520;27.448;2023-04-28T11:02:34;4.73;;;2.43;;
8574;SDS011;4325;42.520;27.448;2023-04-28T11:05:12;4.83;;;2.63;;
8574;SDS011;4325;42.520;27.448;2023-04-28T11:07:40;2.70;;;2.50;;
8574;SDS011;4325;42.520;27.448;2023-04-28T11:13:25;6.23;;;2.23;;
8574;SDS011;4325;42.520;27.448;2023-04-28T11:16:01;4.13;;;2.80;;
8574;SDS011;4325;42.520;27.448;2023-04-28T11:18:28;4.40;;;2.27;;
8574;SDS011;4325;42.520;27.448;2023-04-28T11:20:57;4.97;;;2.50;;
8574;SDS011;4325;42.520;27.448;2023-04-28T11:23:26;5.13;;;2.60;;
8574;SDS011;4325;42.520;27.448;2023-04-28T11:25:54;3.93;;;2.37;;
8574;SDS011;4325;42.520;27.448;2023-04-28T11:28:22;3.83;;;2.30;;
8574;SDS011;4325;42.520;27.448;2023-04-28T11:30:50;7.07;;;3.23;;
8574;SDS011;4325;42.520;27.448;2023-04-28T11:33:17;2.77;;;2.10;;
8574;SDS011;4325;42.520;27.448;2023-04-28T11:35:44;6.83;;;2.90;;
8574;SDS011;4325;42.520;27.448;2023-04-28T11:38:11;4.83;;;2.53;;
8574;SDS011;4325;42.520;27.448;2023-04-28T11:40:38;4.20;;;2.67;;
8574;SDS011;4325;42.520;27.448;2023-04-28T11:43:27;4.07;;;2.80;;
8574;SDS011;4325;42.520;27.448;2023-04-28T11:45:56;5.87;;;2.60;;
8574;SDS011;4325;42.520;27.448;2023-04-28T11:48:22;3.97;;;2.53;;
8574;SDS011;4325;42.520;27.448;2023-04-28T11:50:49;9.07;;;2.53;;
8574;SDS011;4325;42.520;27.448;2023-04-28T11:53:16;6.83;;;2.30;;
8574;SDS011;4325;42.520;27.448;2023-04-28T11:55:43;4.87;;;2.70;;
8574;SDS011;4325;42.520;27.448;2023-04-28T11:58:16;4.63;;;2.90;;
8574;SDS011;4325;42.520;27.448;2023-04-28T12:00:45;4.37;;;2.50;;
8574;SDS011;4325;42.520;27.448;2023-04-28T12:03:40;5.33;;;2.80;;
8574;SDS011;4325;42.520;27.448;2023-04-28T12:06:08;5.30;;;2.97;;
8574;SDS011;4325;42.520;27.448;2023-04-28T12:08:35;5.63;;;2.33;;
8574;SDS011;4325;42.520;27.448;2023-04-28T12:11:08;5.50;;;2.60;;
8574;SDS011;4325;42.520;27.448;2023-04-28T12:13:37;4.17;;;2.67;;
8574;SDS011;4325;42.520;27.448;2023-04-28T12:16:05;4.60;;;2.57;;
8574;SDS011;4325;42.520;27.448;2023-04-28T12:18:34;5.70;;;2.23;;
8574;SDS011;4325;42.520;27.448;2023-04-28T12:21:01;5.07;;;2.70;;
8574;SDS011;4325;42.520;27.448;2023-04-28T12:23:29;3.40;;;2.50;;
8574;SDS011;4325;42.520;27.448;2023-04-28T12:25:57;8.13;;;2.77;;
8574;SDS011;4325;42.520;27.448;2023-04-28T12:28:34;3.23;;;2.70;;
8574;SDS011;4325;42.520;27.448;2023-04-28T12:31:04;7.67;;;2.67;;
8574;SDS011;4325;42.520;27.448;2023-04-28T12:33:34;3.00;;;2.47;;
8574;SDS011;4325;42.520;27.448;2023-04-28T12:36:02;4.50;;;2.50;;
8574;SDS011;4325;42.520;27.448;2023-04-28T12:38:30;8.67;;;2.77;;
8574;SDS011;4325;42.520;27.448;2023-04-28T12:40:57;4.27;;;2.67;;
8574;SDS011;4325;42.520;27.448;2023-04-28T12:43:25;6.40;;;3.20;;
8574;SDS011;4325;42.520;27.448;2023-04-28T12:45:53;5.80;;;2.93;;
8574;SDS011;4325;42.520;27.448;2023-04-28T12:48:20;6.80;;;2.97;;
8574;SDS011;4325;42.520;27.448;2023-04-28T12:50:50;3.97;;;2.37;;
8574;SDS011;4325;42.520;27.448;2023-04-28T12:53:17;10.90;;;2.40;;
8574;SDS011;4325;42.520;27.448;2023-04-28T12:55:44;5.07;;;2.80;;
8574;SDS011;4325;42.520;27.448;2023-04-28T12:58:11;4.47;;;2.30;;
8574;SDS011;4325;42.520;27.448;2023-04-28T13:00:37;3.87;;;2.63;;
8574;SDS011;4325;42.520;27.448;2023-04-28T13:03:05;10.20;;;2.60;;
8574;SDS011;4325;42.520;27.448;2023-04-28T13:05:32;7.57;;;2.77;;
8574;SDS011;4325;42.520;27.448;2023-04-28T13:08:01;5.17;;;2.50;;
8574;SDS011;4325;42.520;27.448;2023-04-28T13:10:28;3.67;;;2.47;;
8574;SDS011;4325;42.520;27.448;2023-04-28T13:12:55;6.93;;;2.83;;
8574;SDS011;4325;42.520;27.448;2023-04-28T13:15:22;2.87;;;2.37;;
8574;SDS011;4325;42.520;27.448;2023-04-28T13:17:49;6.87;;;2.50;;
8574;SDS011;4325;42.520;27.448;2023-04-28T13:20:16;6.53;;;2.53;;
8574;SDS011;4325;42.520;27.448;2023-04-28T13:22:43;12.33;;;3.00;;
8574;SDS011;4325;42.520;27.448;2023-04-28T13:25:11;4.83;;;2.17;;
8574;SDS011;4325;42.520;27.448;2023-04-28T13:27:38;6.50;;;2.33;;
8574;SDS011;4325;42.520;27.448;2023-04-28T13:30:05;7.17;;;2.60;;
8574;SDS011;4325;42.520;27.448;2023-04-28T13:32:33;9.70;;;2.53;;
8574;SDS011;4325;42.520;27.448;2023-04-28T13:35:00;6.03;;;2.10;;
8574;SDS011;4325;42.520;27.448;2023-04-28T13:37:26;2.33;;;2.07;;
8574;SDS011;4325;42.520;27.448;2023-04-28T13:39:53;4.90;;;2.40;;
8574;SDS011;4325;42.520;27.448;2023-04-28T13:42:21;3.60;;;2.40;;
8574;SDS011;4325;42.520;27.448;2023-04-28T13:47:34;4.40;;;2.20;;
8574;SDS011;4325;42.520;27.448;2023-04-28T13:50:01;7.33;;;2.47;;
8574;SDS011;4325;42.520;27.448;2023-04-28T13:52:28;9.93;;;2.43;;
8574;SDS011;4325;42.520;27.448;2023-04-28T13:54:55;3.80;;;2.40;;
8574;SDS011;4325;42.520;27.448;2023-04-28T13:57:23;4.70;;;2.40;;
8574;SDS011;4325;42.520;27.448;2023-04-28T13:59:50;3.37;;;2.37;;
8574;SDS011;4325;42.520;27.448;2023-04-28T14:02:17;4.87;;;2.30;;
8574;SDS011;4325;42.520;27.448;2023-04-28T14:04:44;2.90;;;2.20;;
8574;SDS011;4325;42.520;27.448;2023-04-28T14:07:13;4.73;;;2.60;;
8574;SDS011;4325;42.520;27.448;2023-04-28T14:09:39;3.37;;;2.57;;
8574;SDS011;4325;42.520;27.448;2023-04-28T14:12:06;3.30;;;2.83;;
8574;SDS011;4325;42.520;27.448;2023-04-28T14:14:36;3.53;;;2.40;;
8574;SDS011;4325;42.520;27.448;2023-04-28T14:17:03;7.77;;;2.50;;
8574;SDS011;4325;42.520;27.448;2023-04-28T14:19:30;7.77;;;2.43;;
8574;SDS011;4325;42.520;27.448;2023-04-28T14:21:57;5.47;;;2.97;;
8574;SDS011;4325;42.520;27.448;2023-04-28T14:24:24;12.07;;;2.73;;
8574;SDS011;4325;42.520;27.448;2023-04-28T14:26:51;4.93;;;2.23;;
8574;SDS011;4325;42.520;27.448;2023-04-28T14:29:18;3.47;;;2.23;;
8574;SDS011;4325;42.520;27.448;2023-04-28T14:31:46;8.20;;;2.27;;
8574;SDS011;4325;42.520;27.448;2023-04-28T14:34:13;6.83;;;2.33;;
8574;SDS011;4325;42.520;27.448;2023-04-28T14:36:40;4.50;;;2.13;;
8574;SDS011;4325;42.520;27.448;2023-04-28T14:39:07;5.80;;;2.20;;
8574;SDS011;4325;42.520;27.448;2023-04-28T14:41:34;8.00;;;2.70;;
8574;SDS011;4325;42.520;27.448;2023-04-28T14:44:01;5.30;;;2.47;;
8574;SDS011;4325;42.520;27.448;2023-04-28T14:46:28;6.10;;;2.70;;
8574;SDS011;4325;42.520;27.448;2023-04-28T14:48:56;11.50;;;2.80;;
8574;SDS011;4325;42.520;27.448;2023-04-28T14:51:23;5.70;;;2.10;;
8574;SDS011;4325;42.520;27.448;2023-04-28T14:53:50;7.80;;;2.83;;
8574;SDS011;4325;42.520;27.448;2023-04-28T14:56:17;7.03;;;2.70;;
8574;SDS011;4325;42.520;27.448;2023-04-28T14:58:44;8.00;;;3.30;;
8574;SDS011;4325;42.520;27.448;2023-04-28T15:01:11;4.47;;;2.60;;
8574;SDS011;4325;42.520;27.448;2023-04-28T15:03:38;9.67;;;2.87;;
8574;SDS011;4325;42.520;27.448;2023-04-28T15:06:06;6.07;;;2.80;;
8574;SDS011;4325;42.520;27.448;2023-04-28T15:08:33;3.73;;;2.90;;
8574;SDS011;4325;42.520;27.448;2023-04-28T15:11:00;5.53;;;2.93;;
8574;SDS011;4325;42.520;27.448;2023-04-28T15:13:27;4.50;;;3.00;;
8574;SDS011;4325;42.520;27.448;2023-04-28T15:15:54;6.03;;;4.20;;
8574;SDS011;4325;42.520;27.448;2023-04-28T15:18:21;7.03;;;3.63;;
8574;SDS011;4325;42.520;27.448;2023-04-28T15:20:50;6.27;;;2.47;;
8574;SDS011;4325;42.520;27.448;2023-04-28T15:23:18;11.73;;;3.33;;
8574;SDS011;4325;42.520;27.448;2023-04-28T15:25:45;9.73;;;3.10;;